createdAt,value
2019-03-25T00:01:22.730Z,10.30
2019-03-25T00:03:52.685Z,10.30
2019-03-25T00:06:24.584Z,10.20
2019-03-25T00:09:04.913Z,10.30
2019-03-25T00:11:27.799Z,10.30
2019-03-25T00:13:58.790Z,10.30
2019-03-25T00:16:29.934Z,10.40
2019-03-25T00:19:30.522Z,10.50
2019-03-25T00:22:14.407Z,10.20
2019-03-25T00:25:15.152Z,10.10
2019-03-25T00:28:20.171Z,10.00
2019-03-25T00:31:27.129Z,10.00
2019-03-25T00:35:17.839Z,10.00
2019-03-25T00:37:48.556Z,9.90
2019-03-25T00:40:18.791Z,10.00
2019-03-25T00:43:02.301Z,10.00
2019-03-25T00:46:14.162Z,10.10
2019-03-25T00:48:40.252Z,10.20
2019-03-25T00:51:12.886Z,10.30
2019-03-25T00:56:15.599Z,10.10
2019-03-25T00:57:23.258Z,10.20
2019-03-25T00:59:50.439Z,10.30
2019-03-25T01:02:24.208Z,10.20
2019-03-25T01:04:54.546Z,10.20
2019-03-25T01:07:53.346Z,10.10
2019-03-25T01:11:29.761Z,10.10
2019-03-25T01:14:00.634Z,10.30
2019-03-25T01:16:31.574Z,10.40
2019-03-25T01:19:03.838Z,10.40
2019-03-25T01:21:34.309Z,10.60
2019-03-25T01:24:04.958Z,10.50
2019-03-25T01:26:35.422Z,10.30
2019-03-25T01:29:05.136Z,10.30
2019-03-25T01:31:37.045Z,10.20
2019-03-25T01:34:09.169Z,10.10
2019-03-25T01:36:39.830Z,10.30
2019-03-25T01:39:10.068Z,10.40
2019-03-25T01:41:41.101Z,10.50
2019-03-25T01:48:01.456Z,10.50
2019-03-25T01:50:31.817Z,10.40
2019-03-25T01:53:03.966Z,10.40
2019-03-25T01:55:35.568Z,10.40
2019-03-25T01:58:45.315Z,10.50
2019-03-25T02:01:15.072Z,10.50
2019-03-25T02:03:46.620Z,10.40
2019-03-25T02:06:17.685Z,10.40
2019-03-25T02:08:47.517Z,10.10
2019-03-25T02:11:18.470Z,10.00
2019-03-25T02:13:49.396Z,10.00
2019-03-25T02:16:22.844Z,10.10
2019-03-25T02:18:53.373Z,10.00
2019-03-25T02:21:23.659Z,10.00
2019-03-25T02:23:54.735Z,10.00
2019-03-25T02:26:25.026Z,10.10
2019-03-25T02:28:56.716Z,10.20
2019-03-25T02:31:29.510Z,10.20
2019-03-25T02:33:59.903Z,10.10
2019-03-25T02:36:31.856Z,10.20
2019-03-25T02:39:05.774Z,10.30
2019-03-25T02:41:35.882Z,10.40
2019-03-25T02:44:13.387Z,10.30
2019-03-25T02:46:44.394Z,10.30
2019-03-25T02:49:16.609Z,10.10
2019-03-25T02:51:47.241Z,10.00
2019-03-25T02:54:19.037Z,9.90
2019-03-25T02:56:49.548Z,10.00
2019-03-25T02:59:20.428Z,9.90
2019-03-25T03:01:51.076Z,10.00
2019-03-25T03:04:21.145Z,9.90
2019-03-25T03:06:51.568Z,9.70
2019-03-25T03:09:22.668Z,9.60
2019-03-25T03:11:53.231Z,9.50
2019-03-25T03:14:25.404Z,9.60
2019-03-25T03:16:56.402Z,9.60
2019-03-25T03:19:27.042Z,9.50
2019-03-25T03:21:57.455Z,9.40
2019-03-25T03:24:29.987Z,9.50
2019-03-25T03:27:00.757Z,9.60
2019-03-25T03:29:31.090Z,9.50
2019-03-25T03:32:02.250Z,9.50
2019-03-25T03:34:36.359Z,9.50
2019-03-25T03:37:08.248Z,9.40
2019-03-25T03:39:38.409Z,9.50
2019-03-25T03:42:08.616Z,9.40
2019-03-25T03:44:38.497Z,9.40
2019-03-25T03:47:11.895Z,9.30
2019-03-25T03:49:41.700Z,9.50
2019-03-25T03:52:12.886Z,9.50
2019-03-25T03:54:45.420Z,9.40
2019-03-25T03:57:16.562Z,9.30
2019-03-25T03:59:47.743Z,9.30
2019-03-25T04:02:20.885Z,9.50
2019-03-25T04:04:51.634Z,9.50
2019-03-25T04:07:22.534Z,9.30
2019-03-25T04:09:52.649Z,9.20
2019-03-25T04:12:28.068Z,9.30
2019-03-25T04:15:00.441Z,9.20
2019-03-25T04:17:31.184Z,9.10
2019-03-25T04:20:01.472Z,9.20
2019-03-25T04:22:32.353Z,9.30
2019-03-25T04:25:04.432Z,9.20
2019-03-25T04:27:34.795Z,9.10
2019-03-25T04:30:04.908Z,9.40
2019-03-25T04:32:39.140Z,9.50
2019-03-25T04:35:10.812Z,9.40
2019-03-25T04:37:42.175Z,9.30
2019-03-25T04:40:12.860Z,9.30
2019-03-25T04:42:44.640Z,9.20
2019-03-25T04:45:16.385Z,9.20
2019-03-25T04:47:47.091Z,9.20
2019-03-25T04:50:18.179Z,9.00
2019-03-25T04:52:48.294Z,9.00
2019-03-25T04:55:20.511Z,8.80
2019-03-25T04:57:52.390Z,9.00
2019-03-25T05:00:35.192Z,9.10
2019-03-25T05:03:06.303Z,9.20
2019-03-25T05:05:36.879Z,9.00
2019-03-25T05:08:07.075Z,9.00
2019-03-25T05:10:38.903Z,8.80
2019-03-25T05:13:31.933Z,9.00
2019-03-25T05:20:07.831Z,8.70
2019-03-25T05:22:42.145Z,8.80
2019-03-25T05:25:12.391Z,9.00
2019-03-25T05:27:43.611Z,9.10
2019-03-25T05:30:14.021Z,8.80
2019-03-25T05:32:48.051Z,8.90
2019-03-25T05:35:35.013Z,8.90
2019-03-25T05:38:10.698Z,8.80
2019-03-25T05:40:39.650Z,8.80
2019-03-25T05:43:10.587Z,9.00
2019-03-25T05:45:40.373Z,9.10
2019-03-25T05:48:12.499Z,9.10
2019-03-25T05:50:46.068Z,9.10
2019-03-25T05:53:16.295Z,8.90
2019-03-25T05:55:47.208Z,8.70
2019-03-25T05:58:19.322Z,8.90
2019-03-25T06:00:50.784Z,8.70
2019-03-25T06:03:21.833Z,8.80
2019-03-25T06:05:55.340Z,8.90
2019-03-25T06:08:25.216Z,8.90
2019-03-25T06:10:55.064Z,8.90
2019-03-25T06:13:27.932Z,8.80
2019-03-25T06:15:59.033Z,8.80
2019-03-25T06:18:29.388Z,8.70
2019-03-25T06:20:59.620Z,8.70
2019-03-25T06:23:29.741Z,8.80
2019-03-25T06:26:02.044Z,8.90
2019-03-25T06:28:32.859Z,9.00
2019-03-25T06:31:03.271Z,8.90
2019-03-25T06:33:36.082Z,8.90
2019-03-25T06:36:05.965Z,8.90
2019-03-25T06:38:36.330Z,8.80
2019-03-25T06:41:08.034Z,8.80
2019-03-25T06:43:40.611Z,8.80
2019-03-25T06:46:11.631Z,8.80
2019-03-25T06:48:43.832Z,9.00
2019-03-25T06:51:14.247Z,8.90
2019-03-25T06:53:48.740Z,8.90
2019-03-25T06:56:19.255Z,9.00
2019-03-25T06:59:07.353Z,8.60
2019-03-25T07:01:40.491Z,8.50
2019-03-25T07:04:47.223Z,8.60
2019-03-25T07:07:19.649Z,8.80
2019-03-25T07:09:51.639Z,8.70
2019-03-25T07:12:22.238Z,8.70
2019-03-25T07:14:54.711Z,9.00
2019-03-25T07:17:26.773Z,8.80
2019-03-25T07:19:59.711Z,9.10
2019-03-25T07:22:32.048Z,9.40
2019-03-25T07:25:02.120Z,9.40
2019-03-25T07:27:37.169Z,9.40
2019-03-25T07:30:06.927Z,9.40
2019-03-25T07:32:37.371Z,9.10
2019-03-25T07:35:07.644Z,9.60
2019-03-25T07:37:38.266Z,9.70
2019-03-25T07:40:08.730Z,9.80
2019-03-25T07:42:39.033Z,10.10
2019-03-25T07:45:12.073Z,10.50
2019-03-25T07:47:42.845Z,10.50
2019-03-25T07:50:15.608Z,10.10
2019-03-25T07:52:45.890Z,10.70
2019-03-25T07:55:16.039Z,11.10
2019-03-25T07:57:48.606Z,11.80
2019-03-25T08:00:20.127Z,11.90
2019-03-25T08:02:50.628Z,11.30
2019-03-25T08:05:20.622Z,11.30
2019-03-25T08:07:52.286Z,11.10
2019-03-25T08:10:33.513Z,11.50
2019-03-25T08:13:04.091Z,11.70
2019-03-25T08:15:34.150Z,12.30
2019-03-25T08:18:04.622Z,12.10
2019-03-25T08:20:35.131Z,12.40
2019-03-25T08:23:09.076Z,12.40
2019-03-25T08:25:39.363Z,12.80
2019-03-25T08:28:10.025Z,12.10
2019-03-25T08:30:43.246Z,12.00
2019-03-25T08:33:13.471Z,12.00
2019-03-25T08:35:43.810Z,12.60
2019-03-25T08:38:14.206Z,12.80
2019-03-25T08:40:44.576Z,13.20
2019-03-25T08:43:14.649Z,13.70
2019-03-25T08:45:44.389Z,14.10
2019-03-25T08:48:16.874Z,12.80
2019-03-25T08:50:46.909Z,12.40
2019-03-25T08:53:16.612Z,12.40
2019-03-25T08:55:47.458Z,12.40
2019-03-25T08:58:18.797Z,12.90
2019-03-25T09:00:48.903Z,12.00
2019-03-25T09:03:19.089Z,11.50
2019-03-25T09:05:49.177Z,11.40
2019-03-25T09:08:18.890Z,11.10
2019-03-25T09:10:49.542Z,10.90
2019-03-25T09:13:21.158Z,10.60
2019-03-25T09:15:50.958Z,10.10
2019-03-25T09:18:21.660Z,10.10
2019-03-25T09:20:53.522Z,10.60
2019-03-25T09:23:24.482Z,10.30
2019-03-25T09:25:54.155Z,10.50
2019-03-25T09:28:24.801Z,10.70
2019-03-25T09:31:21.379Z,10.20
2019-03-25T09:33:51.285Z,10.30
2019-03-25T09:36:22.290Z,10.30
2019-03-25T09:38:52.556Z,10.60
2019-03-25T09:41:24.468Z,11.10
2019-03-25T09:43:55.283Z,11.20
2019-03-25T09:46:25.463Z,11.00
2019-03-25T09:48:56.619Z,10.40
2019-03-25T09:51:30.092Z,10.60
2019-03-25T09:54:00.883Z,10.20
2019-03-25T09:56:30.562Z,10.60
2019-03-25T09:59:02.260Z,11.40
2019-03-25T10:01:34.646Z,11.90
2019-03-25T10:04:04.314Z,12.30
2019-03-25T10:06:36.266Z,13.00
2019-03-25T10:09:11.985Z,13.60
2019-03-25T10:11:43.218Z,13.80
2019-03-25T10:14:14.736Z,13.80
2019-03-25T10:16:44.685Z,14.50
2019-03-25T10:19:15.654Z,14.70
2019-03-25T10:21:47.906Z,14.20
2019-03-25T10:24:18.632Z,14.60
2019-03-25T10:26:48.998Z,15.10
2019-03-25T10:29:19.278Z,15.50
2019-03-25T10:31:51.443Z,16.50
2019-03-25T10:34:21.967Z,16.90
2019-03-25T10:36:52.547Z,16.60
2019-03-25T10:39:24.912Z,16.10
2019-03-25T10:41:55.808Z,14.70
2019-03-25T10:45:22.554Z,13.40
2019-03-25T10:47:52.322Z,13.60
2019-03-25T10:50:22.014Z,13.00
2019-03-25T10:52:51.911Z,12.80
2019-03-25T10:55:23.112Z,12.60
2019-03-25T10:57:57.606Z,12.50
2019-03-25T11:00:29.372Z,12.10
2019-03-25T11:02:59.384Z,12.10
2019-03-25T11:05:31.028Z,12.00
2019-03-25T11:08:00.759Z,12.00
2019-03-25T11:10:31.738Z,11.20
2019-03-25T11:13:03.499Z,11.60
2019-03-25T11:15:34.486Z,11.50
2019-03-25T11:18:05.849Z,11.40
2019-03-25T11:20:36.381Z,11.70
2019-03-25T11:23:07.665Z,11.80
2019-03-25T11:25:39.230Z,11.70
2019-03-25T11:28:12.632Z,12.00
2019-03-25T11:30:52.942Z,11.80
2019-03-25T11:33:23.284Z,11.50
2019-03-25T11:35:54.720Z,11.50
2019-03-25T11:38:28.331Z,11.50
2019-03-25T11:40:59.182Z,11.60
2019-03-25T11:43:29.411Z,10.90
2019-03-25T11:46:00.180Z,11.40
2019-03-25T11:48:33.306Z,11.80
2019-03-25T11:51:03.782Z,12.00
2019-03-25T11:53:33.491Z,12.00
2019-03-25T11:56:04.954Z,11.80
2019-03-25T11:58:35.222Z,11.80
2019-03-25T12:01:32.887Z,12.00
2019-03-25T12:04:07.495Z,11.80
2019-03-25T12:06:44.312Z,11.70
2019-03-25T12:09:16.603Z,11.90
2019-03-25T12:11:49.776Z,11.40
2019-03-25T12:14:19.906Z,11.80
2019-03-25T12:16:52.575Z,11.50
2019-03-25T12:19:22.642Z,11.40
2019-03-25T12:22:01.499Z,11.40
2019-03-25T12:24:32.457Z,11.10
2019-03-25T12:27:02.729Z,11.60
2019-03-25T12:29:35.687Z,11.60
2019-03-25T12:32:22.434Z,11.60
2019-03-25T12:34:52.697Z,11.50
2019-03-25T12:37:22.455Z,11.80
2019-03-25T12:39:54.132Z,11.40
2019-03-25T12:42:27.112Z,11.50
2019-03-25T12:44:57.983Z,10.80
2019-03-25T12:47:27.964Z,11.00
2019-03-25T12:49:58.389Z,11.00
2019-03-25T12:52:28.547Z,11.10
2019-03-25T12:54:59.743Z,11.00
2019-03-25T12:57:30.472Z,11.00
2019-03-25T13:00:02.540Z,10.90
2019-03-25T13:02:33.046Z,10.70
2019-03-25T13:05:05.364Z,10.40
2019-03-25T13:07:36.432Z,10.40
2019-03-25T13:10:06.633Z,10.10
2019-03-25T13:12:38.436Z,10.20
2019-03-25T13:15:09.412Z,10.20
2019-03-25T13:17:40.195Z,10.10
2019-03-25T13:20:11.330Z,9.40
2019-03-25T13:22:41.403Z,9.20
2019-03-25T13:25:14.480Z,8.90
2019-03-25T13:27:44.332Z,8.80
2019-03-25T13:30:16.089Z,9.30
2019-03-25T13:32:47.824Z,9.60
2019-03-25T13:35:17.471Z,9.50
2019-03-25T13:37:48.462Z,9.30
2019-03-25T13:40:18.408Z,9.00
2019-03-25T13:42:51.286Z,9.20
2019-03-25T13:45:21.406Z,9.30
2019-03-25T13:47:52.468Z,9.30
2019-03-25T13:50:22.618Z,9.10
2019-03-25T13:52:54.678Z,8.90
2019-03-25T13:55:26.648Z,9.10
2019-03-25T13:57:56.984Z,9.00
2019-03-25T14:00:38.598Z,9.30
2019-03-25T14:03:12.333Z,9.60
2019-03-25T14:05:43.248Z,9.60
2019-03-25T14:08:13.386Z,9.50
2019-03-25T14:10:43.466Z,9.70
2019-03-25T14:13:13.473Z,9.90
2019-03-25T14:15:46.381Z,10.10
2019-03-25T14:18:18.289Z,10.20
2019-03-25T14:20:51.706Z,10.20
2019-03-25T14:23:21.379Z,10.00
2019-03-25T14:25:52.210Z,9.90
2019-03-25T14:28:22.146Z,9.80
2019-03-25T14:30:54.612Z,8.60
2019-03-25T14:33:25.069Z,7.80
2019-03-25T14:35:58.059Z,7.90
2019-03-25T14:38:28.122Z,7.60
2019-03-25T14:41:00.890Z,7.10
2019-03-25T14:43:31.862Z,7.20
2019-03-25T14:46:01.911Z,7.30
2019-03-25T14:48:34.157Z,7.30
2019-03-25T14:51:05.116Z,7.40
2019-03-25T14:53:44.822Z,7.40
2019-03-25T14:56:07.221Z,7.50
2019-03-25T14:58:36.905Z,7.50
2019-03-25T15:01:07.205Z,7.70
2019-03-25T15:03:37.737Z,7.70
2019-03-25T15:06:11.770Z,7.60
2019-03-25T15:08:43.511Z,7.80
2019-03-25T15:11:14.737Z,7.50
2019-03-25T15:13:44.860Z,7.50
2019-03-25T15:16:14.828Z,7.70
2019-03-25T15:18:44.727Z,7.80
2019-03-25T15:21:14.695Z,8.20
2019-03-25T15:23:44.402Z,8.30
2019-03-25T15:26:14.393Z,8.20
2019-03-25T15:28:44.467Z,8.20
2019-03-25T15:31:14.638Z,8.20
2019-03-25T15:33:45.360Z,8.30
2019-03-25T15:36:17.608Z,8.50
2019-03-25T15:38:51.068Z,8.20
2019-03-25T15:41:24.211Z,8.10
2019-03-25T15:43:54.745Z,8.00
2019-03-25T15:46:28.223Z,7.80
2019-03-25T15:49:00.267Z,7.80
2019-03-25T15:51:31.373Z,8.00
2019-03-25T15:54:03.309Z,8.00
2019-03-25T15:56:34.456Z,7.90
2019-03-25T15:59:04.113Z,7.90
2019-03-25T16:01:34.943Z,7.70
2019-03-25T16:04:15.386Z,7.60
2019-03-25T16:06:46.491Z,7.50
2019-03-25T16:09:19.898Z,7.60
2019-03-25T16:11:50.017Z,7.50
2019-03-25T16:14:24.922Z,7.60
2019-03-25T16:16:57.795Z,7.50
2019-03-25T16:19:28.355Z,7.60
2019-03-25T16:21:58.629Z,7.50
2019-03-25T16:24:32.112Z,7.80
2019-03-25T16:27:04.938Z,7.70
2019-03-25T16:29:35.798Z,7.60
2019-03-25T16:32:06.846Z,7.70
2019-03-25T16:34:37.624Z,7.70
2019-03-25T16:37:08.307Z,7.50
2019-03-25T16:39:39.543Z,7.00
2019-03-25T16:42:12.203Z,6.60
2019-03-25T16:44:44.133Z,6.60
2019-03-25T16:47:14.815Z,6.30
2019-03-25T16:49:44.915Z,6.10
2019-03-25T16:52:16.698Z,6.40
2019-03-25T16:54:46.641Z,6.50
2019-03-25T16:57:18.753Z,6.30
2019-03-25T16:59:49.538Z,6.10
2019-03-25T17:02:20.614Z,6.10
2019-03-25T17:04:50.796Z,6.00
2019-03-25T17:07:20.546Z,6.00
2019-03-25T17:09:51.555Z,6.00
2019-03-25T17:12:22.996Z,5.90
2019-03-25T17:14:53.680Z,6.00
2019-03-25T17:17:25.849Z,6.10
2019-03-25T17:19:55.925Z,6.20
2019-03-25T17:22:26.937Z,6.20
2019-03-25T17:24:57.374Z,6.20
2019-03-25T17:27:28.872Z,6.10
2019-03-25T17:30:02.336Z,6.20
2019-03-25T17:32:32.484Z,6.30
2019-03-25T17:35:03.945Z,6.30
2019-03-25T17:37:35.018Z,6.20
2019-03-25T17:40:07.725Z,6.20
2019-03-25T17:42:38.257Z,6.00
2019-03-25T17:45:11.809Z,6.10
2019-03-25T17:51:12.852Z,6.10
2019-03-25T17:53:59.187Z,6.20
2019-03-25T17:56:46.253Z,6.20
2019-03-25T17:59:21.940Z,6.10
2019-03-25T18:01:49.234Z,6.10
2019-03-25T18:04:19.762Z,6.20
2019-03-25T18:06:51.214Z,6.00
2019-03-25T18:09:22.517Z,6.10
2019-03-25T18:11:52.186Z,6.20
2019-03-25T18:14:22.698Z,6.30
2019-03-25T18:16:53.103Z,6.20
2019-03-25T18:19:23.056Z,6.40
2019-03-25T18:21:53.305Z,6.50
2019-03-25T18:24:23.430Z,6.30
2019-03-25T18:26:52.977Z,6.00
2019-03-25T18:29:24.929Z,5.60
2019-03-25T18:31:54.870Z,5.10
2019-03-25T18:34:27.793Z,4.80
2019-03-25T18:36:57.506Z,5.00
2019-03-25T18:39:45.290Z,5.10
2019-03-25T18:42:11.177Z,4.90
2019-03-25T18:44:43.682Z,5.10
2019-03-25T18:47:13.916Z,4.90
2019-03-25T18:49:51.323Z,5.00
2019-03-25T18:52:22.969Z,5.00
2019-03-25T18:54:55.119Z,4.90
2019-03-25T18:57:24.853Z,4.80
2019-03-25T18:59:56.960Z,5.00
2019-03-25T19:02:26.972Z,4.80
2019-03-25T19:05:00.988Z,4.70
2019-03-25T19:07:30.779Z,4.80
2019-03-25T19:10:01.799Z,4.90
2019-03-25T19:12:31.578Z,4.80
2019-03-25T19:15:03.072Z,4.90
2019-03-25T19:17:33.538Z,4.90
2019-03-25T19:20:03.711Z,4.80
2019-03-25T19:22:36.861Z,4.70
2019-03-25T19:25:06.755Z,4.70
2019-03-25T19:27:36.963Z,4.70
2019-03-25T19:30:07.776Z,4.80
2019-03-25T19:32:37.955Z,4.70
2019-03-25T19:35:07.892Z,4.70
2019-03-25T19:37:37.846Z,4.70
2019-03-25T19:40:09.828Z,5.00
2019-03-25T19:42:41.937Z,5.10
2019-03-25T19:45:13.980Z,5.20
2019-03-25T19:47:44.343Z,5.30
2019-03-25T19:50:16.421Z,5.30
2019-03-25T19:52:46.922Z,5.30
2019-03-25T19:55:16.714Z,5.20
2019-03-25T19:57:49.347Z,5.10
2019-03-25T20:00:24.042Z,5.20
2019-03-25T20:02:54.203Z,5.20
2019-03-25T20:05:24.575Z,5.20
2019-03-25T20:07:55.406Z,5.30
2019-03-25T20:10:34.821Z,5.20
2019-03-25T20:13:04.767Z,5.30
2019-03-25T20:15:45.407Z,5.30
2019-03-25T20:18:08.089Z,5.50
2019-03-25T20:20:39.793Z,5.40
2019-03-25T20:23:10.442Z,5.30
2019-03-25T20:25:43.054Z,5.20
2019-03-25T20:28:14.527Z,5.20
2019-03-25T20:30:45.969Z,4.90
2019-03-25T20:33:15.669Z,4.90
2019-03-25T20:35:45.375Z,4.90
2019-03-25T20:38:15.431Z,4.90
2019-03-25T20:40:45.972Z,4.80
2019-03-25T20:43:15.771Z,4.80
2019-03-25T20:45:45.648Z,5.00
2019-03-25T20:48:15.811Z,5.00
2019-03-25T20:50:45.653Z,4.90
2019-03-25T20:53:18.348Z,4.80
2019-03-25T20:55:49.027Z,4.70
2019-03-25T20:58:19.802Z,5.00
2019-03-25T21:00:58.731Z,4.90
2019-03-25T21:03:31.575Z,4.80
2019-03-25T21:06:04.715Z,4.80
2019-03-25T21:08:36.383Z,4.90
2019-03-25T21:11:08.144Z,5.10
2019-03-25T21:13:38.565Z,5.20
2019-03-25T21:16:10.289Z,5.10
2019-03-25T21:18:40.881Z,5.20
2019-03-25T21:21:12.981Z,5.10
2019-03-25T21:23:42.749Z,5.00
2019-03-25T21:26:12.815Z,4.90
2019-03-25T21:28:48.358Z,4.90
2019-03-25T21:31:28.039Z,5.00
2019-03-25T21:33:59.014Z,5.00
2019-03-25T21:36:31.299Z,5.00
2019-03-25T21:39:23.740Z,5.10
2019-03-25T21:41:57.253Z,5.20
2019-03-25T21:44:29.414Z,5.20
2019-03-25T21:47:24.587Z,4.90
2019-03-25T21:50:04.675Z,4.90
2019-03-25T21:52:43.279Z,5.10
2019-03-25T21:55:14.575Z,5.20
2019-03-25T21:57:52.429Z,5.40
2019-03-25T22:00:26.860Z,5.20
2019-03-25T22:03:11.326Z,5.00
2019-03-25T22:05:46.315Z,5.10
2019-03-25T22:08:23.671Z,5.10
2019-03-25T22:11:22.295Z,5.10
2019-03-25T22:14:05.154Z,5.10
2019-03-25T22:16:43.014Z,5.00
2019-03-25T22:19:18.312Z,5.00
2019-03-25T22:21:48.258Z,5.10
2019-03-25T22:24:18.332Z,5.00
2019-03-25T22:26:49.138Z,5.10
2019-03-25T22:29:39.248Z,4.80
2019-03-25T22:32:09.225Z,4.80
2019-03-25T22:38:28.960Z,5.00
2019-03-25T22:41:01.696Z,4.90
2019-03-25T22:43:44.590Z,4.80
2019-03-25T22:46:16.185Z,4.70
2019-03-25T22:48:47.844Z,4.70
2019-03-25T22:51:17.671Z,4.70
2019-03-25T22:53:50.350Z,4.50
2019-03-25T22:56:20.734Z,4.50
2019-03-25T22:58:51.095Z,4.30
2019-03-25T23:01:20.994Z,4.40
2019-03-25T23:03:55.097Z,4.40
2019-03-25T23:06:27.143Z,4.40
2019-03-25T23:08:58.166Z,4.40
2019-03-25T23:11:28.545Z,4.40
2019-03-25T23:14:00.397Z,4.20
2019-03-25T23:16:30.415Z,4.20
2019-03-25T23:19:02.082Z,4.20
2019-03-25T23:21:34.152Z,4.20
2019-03-25T23:24:11.846Z,4.30
2019-03-25T23:27:02.373Z,4.40
2019-03-25T23:29:33.687Z,4.40
2019-03-25T23:32:09.990Z,4.20
2019-03-25T23:34:39.772Z,4.10
2019-03-25T23:37:10.153Z,4.20
2019-03-25T23:39:40.742Z,4.30
2019-03-25T23:42:11.652Z,4.60
2019-03-25T23:44:47.702Z,4.60
2019-03-25T23:47:15.126Z,4.80
2019-03-25T23:49:45.859Z,4.80
2019-03-25T23:52:16.150Z,4.90
2019-03-25T23:54:47.276Z,4.90
2019-03-25T23:57:17.506Z,4.70
2019-03-25T23:59:48.532Z,4.40
